Terminal Aerodrome Forecast
Issued by NWS

Home | Current Version | Previous Version | Text Only | Print | Product List | Glossary On
Versions: 1 2 3 4 5 6 7 8 9 10 11 12 13
000
FTUS41 KBTV 011120
TAFMPV
TAF
KMPV 011120Z 0112/0212 00000KT P6SM VCSH FEW070 OVC090
     FM011400 VRB03KT P6SM -RA OVC050
     FM011800 14005KT 3SM -RA BR BKN025 OVC050
     FM012200 16008KT P6SM -SHRA BKN025 OVC050=

USA.gov is the U.S. government's official web portal to all federal, state and local government web resources and services.